This is the latest recevied weather packets stored in our database for station/object DJ2KUA-6. If no packets are shown the sender has not sent any weather packets the latest 10 day(s).
| Time | Temp. | Humidity | Pressure | Rain* | Wind** | Luminosity | Snow |
|---|---|---|---|---|---|---|---|
| 1777193436 | 16.11° C | 50% | 1076 hPa | 0 mm | - | - | - |
| 1777192297 | 15° C | 53% | 1076 hPa | 0 mm | - | - | - |
| 1777191157 | 13.89° C | 55% | 1076 hPa | 0 mm | - | - | - |
| 1777190018 | 13.33° C | 56% | 1076 hPa | 0 mm | - | - | - |
| 1777188879 | 12.22° C | 58% | 1076 hPa | 0 mm | - | - | - |
| 1777187737 | 10.56° C | 62% | 1076 hPa | 0 mm | - | - | - |
| 1777186599 | 8.89° C | 67% | 1076 hPa | 0 mm | - | - | - |
| 1777185460 | 7.78° C | 71% | 1076 hPa | 0 mm | - | - | - |
| 1777184317 | 6.67° C | 73% | 1076 hPa | 0 mm | - | - | - |
| 1777183177 | 6.11° C | 73% | 1076 hPa | 0 mm | - | - | - |
| 1777182038 | 6.11° C | 74% | 1075 hPa | 0 mm | - | - | - |
| 1777180897 | 5° C | 75% | 1075 hPa | 0 mm | - | - | - |
| 1777179757 | 4.44° C | 73% | 1075 hPa | 0 mm | - | - | - |
| 1777178617 | 4.44° C | 74% | 1075 hPa | 0 mm | - | - | - |
| 1777177476 | 4.44° C | 72% | 1075 hPa | 0 mm | - | - | - |
| 1777176337 | 4.44° C | 72% | 1075 hPa | 0 mm | - | - | - |
| 1777175196 | 4.44° C | 72% | 1074 hPa | 0 mm | - | - | - |
| 1777174059 | 5° C | 71% | 1074 hPa | 0 mm | - | - | - |
| 1777172918 | 5.56° C | 71% | 1074 hPa | 0 mm | - | - | - |
| 1777171779 | 5.56° C | 69% | 1074 hPa | 0 mm | - | - | - |
| 1777170639 | 5.56° C | 68% | 1074 hPa | 0 mm | - | - | - |
| 1777169499 | 6.11° C | 67% | 1074 hPa | 0 mm | - | - | - |
| 1777168359 | 6.67° C | 65% | 1074 hPa | 0 mm | - | - | - |
| 1777167217 | 6.67° C | 64% | 1074 hPa | 0 mm | - | - | - |
| 1777166079 | 7.22° C | 63% | 1074 hPa | 0 mm | - | - | - |
* Rain latest hour (hover to see other rain measurements)
** Current wind speed in m/s (hover to see current wind gust speed)